createdAt,value
2017-05-23T00:01:46.215Z,6.60
2017-05-23T00:04:13.533Z,5.80
2017-05-23T00:06:40.860Z,6.20
2017-05-23T00:09:08.217Z,5.90
2017-05-23T00:11:35.560Z,6.24
2017-05-23T00:14:02.872Z,6.20
2017-05-23T00:16:30.134Z,6.04
2017-05-23T00:18:56.703Z,6.44
2017-05-23T00:21:23.164Z,5.98
2017-05-23T00:23:50.512Z,6.72
2017-05-23T00:26:17.854Z,6.62
2017-05-23T00:28:45.170Z,5.70
2017-05-23T00:31:13.011Z,6.26
2017-05-23T00:33:40.669Z,5.22
2017-05-23T00:36:07.997Z,6.06
2017-05-23T00:38:35.345Z,5.52
2017-05-23T00:41:02.665Z,6.26
2017-05-23T00:43:30.013Z,5.74
2017-05-23T00:45:57.324Z,6.30
2017-05-23T00:48:24.657Z,6.36
2017-05-23T00:50:52.372Z,6.24
2017-05-23T00:53:19.609Z,6.36
2017-05-23T00:55:46.931Z,5.86
2017-05-23T00:58:14.245Z,6.56
2017-05-23T01:00:41.558Z,6.66
2017-05-23T01:03:08.884Z,6.90
2017-05-23T01:05:36.238Z,6.46
2017-05-23T01:08:03.581Z,7.02
2017-05-23T01:10:30.796Z,6.60
2017-05-23T01:12:58.457Z,6.56
2017-05-23T01:15:25.793Z,6.82
2017-05-23T01:17:53.090Z,6.68
2017-05-23T01:20:19.693Z,6.20
2017-05-23T01:22:47.017Z,6.40
2017-05-23T01:25:14.392Z,6.56
2017-05-23T01:27:41.726Z,7.14
2017-05-23T01:30:09.070Z,6.90
2017-05-23T01:32:36.415Z,7.32
2017-05-23T01:35:04.120Z,7.94
2017-05-23T01:37:31.486Z,6.86
2017-05-23T01:39:58.818Z,6.48
2017-05-23T01:42:26.216Z,6.86
2017-05-23T01:44:53.549Z,7.08
2017-05-23T01:47:21.296Z,6.50
2017-05-23T01:49:48.637Z,6.50
2017-05-23T01:52:15.951Z,7.22
2017-05-23T01:54:43.273Z,6.92
2017-05-23T01:57:10.581Z,7.28
2017-05-23T01:59:38.320Z,6.82
2017-05-23T02:02:05.641Z,6.76
2017-05-23T02:04:33.005Z,6.60
2017-05-23T02:07:00.341Z,7.00
2017-05-23T02:09:27.549Z,6.56
2017-05-23T02:11:54.864Z,7.00
2017-05-23T02:14:22.194Z,6.12
2017-05-23T02:16:49.680Z,6.72
2017-05-23T02:19:16.982Z,7.32
2017-05-23T02:21:44.357Z,6.82
2017-05-23T02:24:11.682Z,6.80
2017-05-23T02:26:39.066Z,6.42
2017-05-23T02:29:06.438Z,6.42
2017-05-23T02:31:33.041Z,6.74
2017-05-23T02:34:00.360Z,5.98
2017-05-23T02:36:27.693Z,6.20
2017-05-23T02:38:54.939Z,6.12
2017-05-23T02:41:22.254Z,5.88
2017-05-23T02:43:49.568Z,5.90
2017-05-23T02:46:16.956Z,5.94
2017-05-23T02:48:44.281Z,6.00
2017-05-23T02:51:11.615Z,6.22
2017-05-23T02:53:39.001Z,6.68
2017-05-23T02:56:06.307Z,5.90
2017-05-23T02:58:33.638Z,6.36
2017-05-23T03:01:00.956Z,5.92
2017-05-23T03:03:28.304Z,5.90
2017-05-23T03:05:55.626Z,5.88
2017-05-23T03:08:22.149Z,5.48
2017-05-23T03:10:49.352Z,6.10
2017-05-23T03:13:16.680Z,5.40
2017-05-23T03:15:44.001Z,5.40
2017-05-23T03:18:11.346Z,6.10
2017-05-23T03:20:38.873Z,5.82
2017-05-23T03:23:06.274Z,5.88
2017-05-23T03:25:33.525Z,5.78
2017-05-23T03:28:00.860Z,5.74
2017-05-23T03:30:28.173Z,5.60
2017-05-23T03:32:55.500Z,5.80
2017-05-23T03:35:22.813Z,5.76
2017-05-23T03:37:50.004Z,6.00
2017-05-23T03:40:17.345Z,5.70
2017-05-23T03:42:44.735Z,5.88
2017-05-23T03:45:11.982Z,5.42
2017-05-23T03:47:39.296Z,6.18
2017-05-23T03:50:06.605Z,5.70
2017-05-23T03:52:33.953Z,6.38
2017-05-23T03:55:01.288Z,6.10
2017-05-23T03:57:28.479Z,6.38
2017-05-23T03:59:55.780Z,5.90
2017-05-23T04:02:23.202Z,5.96
2017-05-23T04:04:50.761Z,6.28
2017-05-23T04:07:17.329Z,5.40
2017-05-23T04:09:44.688Z,5.52
2017-05-23T04:12:11.997Z,5.82
2017-05-23T04:14:39.374Z,6.28
2017-05-23T04:17:06.681Z,6.40
2017-05-23T04:19:34.480Z,6.34
2017-05-23T04:22:01.841Z,6.04
2017-05-23T04:24:29.383Z,6.68
2017-05-23T04:26:56.688Z,7.46
2017-05-23T04:29:25.069Z,6.52
2017-05-23T04:31:52.413Z,6.10
2017-05-23T04:34:19.765Z,6.86
2017-05-23T04:36:47.097Z,6.28
2017-05-23T04:39:14.461Z,6.32
2017-05-23T04:41:42.161Z,6.68
2017-05-23T04:44:09.492Z,6.00
2017-05-23T04:46:36.099Z,6.40
2017-05-23T04:49:03.470Z,5.94
2017-05-23T04:51:30.784Z,5.98
2017-05-23T04:53:58.128Z,5.88
2017-05-23T04:56:25.537Z,6.74
2017-05-23T04:58:52.911Z,6.88
2017-05-23T05:01:20.226Z,5.86
2017-05-23T05:03:47.413Z,6.20
2017-05-23T05:06:14.732Z,6.08
2017-05-23T05:08:42.073Z,6.68
2017-05-23T05:11:15.494Z,5.72
2017-05-23T05:13:42.888Z,6.14
2017-05-23T05:16:10.152Z,6.42
2017-05-23T05:18:37.453Z,5.58
2017-05-23T05:21:04.793Z,6.82
2017-05-23T05:23:32.198Z,6.36
2017-05-23T05:25:59.505Z,6.70
2017-05-23T05:28:26.702Z,6.48
2017-05-23T05:30:53.329Z,6.92
2017-05-23T05:33:20.661Z,7.20
2017-05-23T05:35:48.026Z,6.12
2017-05-23T05:38:16.195Z,6.32
2017-05-23T05:40:43.453Z,7.20
2017-05-23T05:43:10.769Z,6.36
2017-05-23T05:45:38.121Z,6.62
2017-05-23T05:48:05.436Z,6.30
2017-05-23T05:50:32.812Z,6.42
2017-05-23T05:53:00.364Z,6.12
2017-05-23T05:55:27.756Z,6.70
2017-05-23T05:57:55.115Z,6.68
2017-05-23T06:00:22.448Z,6.98
2017-05-23T06:02:49.761Z,7.00
2017-05-23T06:05:24.008Z,7.12
2017-05-23T06:07:50.869Z,6.98
2017-05-23T06:10:18.252Z,6.18
2017-05-23T06:12:51.737Z,7.08
2017-05-23T06:15:19.091Z,6.60
2017-05-23T06:17:46.475Z,6.96
2017-05-23T06:20:20.658Z,6.94
2017-05-23T06:22:47.943Z,6.66
2017-05-23T06:25:15.717Z,7.08
2017-05-23T06:27:43.060Z,6.90
2017-05-23T06:30:10.353Z,6.70
2017-05-23T06:32:38.299Z,7.30
2017-05-23T06:35:08.939Z,6.88
2017-05-23T06:37:36.325Z,7.04
2017-05-23T06:40:03.625Z,6.96
2017-05-23T06:42:30.945Z,6.24
2017-05-23T06:44:58.275Z,6.62
2017-05-23T06:47:25.475Z,7.26
2017-05-23T06:49:55.572Z,6.68
2017-05-23T06:52:22.933Z,6.10
2017-05-23T06:54:50.109Z,6.26
2017-05-23T06:57:17.447Z,6.44
2017-05-23T06:59:44.862Z,6.24
2017-05-23T07:02:12.057Z,6.26
2017-05-23T07:04:39.293Z,6.34
2017-05-23T07:07:06.637Z,5.92
2017-05-23T07:09:33.975Z,5.90
2017-05-23T07:12:00.561Z,6.00
2017-05-23T07:14:27.868Z,6.68
2017-05-23T07:16:55.227Z,5.76
2017-05-23T07:19:21.788Z,5.82
2017-05-23T07:21:52.772Z,5.50
2017-05-23T07:24:19.937Z,5.48
2017-05-23T07:26:47.281Z,6.20
2017-05-23T07:29:14.512Z,5.24
2017-05-23T07:31:41.902Z,4.88
2017-05-23T07:34:09.267Z,5.44
2017-05-23T07:36:36.643Z,5.14
2017-05-23T07:39:03.977Z,4.96
2017-05-23T07:41:31.273Z,5.54
2017-05-23T07:43:58.597Z,4.92
2017-05-23T07:46:25.927Z,5.02
2017-05-23T07:48:53.266Z,4.72
2017-05-23T07:51:20.596Z,4.10
2017-05-23T07:53:47.963Z,4.26
2017-05-23T07:56:15.225Z,3.54
2017-05-23T07:58:42.531Z,4.12
2017-05-23T08:01:09.863Z,4.18
2017-05-23T08:03:37.865Z,3.62
2017-05-23T08:06:05.185Z,3.66
2017-05-23T08:08:32.497Z,3.54
2017-05-23T08:10:59.085Z,4.00
2017-05-23T08:13:26.404Z,4.02
2017-05-23T08:15:53.694Z,3.38
2017-05-23T08:18:21.005Z,3.76
2017-05-23T08:20:48.328Z,3.66
2017-05-23T08:23:14.945Z,3.28
2017-05-23T08:25:42.254Z,3.94
2017-05-23T08:28:11.127Z,3.46
2017-05-23T08:30:38.454Z,3.50
2017-05-23T08:33:05.841Z,3.36
2017-05-23T08:35:33.245Z,3.70
2017-05-23T08:38:00.442Z,4.02
2017-05-23T08:40:32.916Z,3.38
2017-05-23T08:42:59.989Z,3.60
2017-05-23T08:45:27.113Z,4.32
2017-05-23T08:47:54.185Z,3.26
2017-05-23T08:50:21.265Z,4.60
2017-05-23T08:52:48.373Z,4.70
2017-05-23T08:55:15.451Z,4.80
2017-05-23T08:57:42.743Z,5.50
2017-05-23T09:00:09.812Z,5.00
2017-05-23T09:02:37.113Z,5.92
2017-05-23T09:05:04.325Z,4.20
2017-05-23T09:07:31.637Z,4.04
2017-05-23T09:09:58.950Z,3.54
2017-05-23T09:12:26.370Z,3.94
2017-05-23T09:14:53.686Z,4.78
2017-05-23T09:17:20.266Z,3.78
2017-05-23T09:19:47.598Z,4.10
2017-05-23T09:22:14.936Z,3.88
2017-05-23T09:24:59.133Z,4.00
2017-05-23T09:27:32.207Z,3.86
2017-05-23T09:29:58.534Z,4.08
2017-05-23T09:32:25.656Z,4.06
2017-05-23T09:34:53.628Z,4.02
2017-05-23T09:37:20.684Z,3.70
2017-05-23T09:39:47.066Z,4.24
2017-05-23T09:42:14.209Z,4.90
2017-05-23T09:44:41.310Z,4.86
2017-05-23T09:47:08.369Z,3.38
2017-05-23T09:49:35.458Z,4.28
2017-05-23T09:52:01.816Z,3.78
2017-05-23T09:54:28.888Z,4.64
2017-05-23T09:56:55.936Z,4.44
2017-05-23T09:59:22.996Z,4.50
2017-05-23T10:01:50.081Z,3.86
2017-05-23T10:04:17.182Z,3.92
2017-05-23T10:06:44.305Z,3.36
2017-05-23T10:09:11.386Z,4.38
2017-05-23T10:11:38.722Z,4.30
2017-05-23T10:14:05.980Z,3.94
2017-05-23T10:16:33.493Z,3.70
2017-05-23T10:19:00.560Z,3.82
2017-05-23T10:21:33.623Z,3.20
2017-05-23T10:24:00.697Z,3.46
2017-05-23T10:26:27.766Z,3.22
2017-05-23T10:28:54.858Z,2.70
2017-05-23T10:31:21.925Z,3.56
2017-05-23T10:33:49.002Z,2.92
2017-05-23T10:36:16.091Z,3.52
2017-05-23T10:38:43.339Z,3.00
2017-05-23T10:41:10.632Z,3.40
2017-05-23T10:43:37.937Z,3.98
2017-05-23T10:46:05.249Z,4.16
2017-05-23T10:48:32.549Z,5.12
2017-05-23T10:50:59.861Z,3.86
2017-05-23T10:53:27.169Z,3.72
2017-05-23T10:55:54.490Z,5.60
2017-05-23T10:58:21.841Z,4.70
2017-05-23T11:00:49.130Z,4.98
2017-05-23T11:03:16.366Z,4.96
2017-05-23T11:05:43.581Z,3.72
2017-05-23T11:08:10.977Z,3.00
2017-05-23T11:10:38.283Z,4.92
2017-05-23T11:13:08.520Z,3.96
2017-05-23T11:15:35.580Z,3.94
2017-05-23T11:18:02.633Z,5.02
2017-05-23T11:20:29.694Z,6.16
2017-05-23T11:22:56.764Z,6.94
2017-05-23T11:25:24.092Z,5.68
2017-05-23T11:27:51.409Z,5.88
2017-05-23T11:30:18.802Z,6.46
2017-05-23T11:32:46.112Z,6.22
2017-05-23T11:35:13.444Z,7.28
2017-05-23T11:37:40.649Z,10.34
2017-05-23T11:40:07.973Z,9.60
2017-05-23T11:42:35.285Z,9.70
2017-05-23T11:45:02.620Z,8.30
2017-05-23T11:47:29.940Z,8.60
2017-05-23T11:49:57.426Z,9.30
2017-05-23T11:52:24.750Z,8.22
2017-05-23T11:54:52.058Z,8.62
2017-05-23T11:57:25.272Z,8.70
2017-05-23T11:59:52.329Z,8.62
2017-05-23T12:02:19.420Z,9.76
2017-05-23T12:04:46.505Z,9.44
2017-05-23T12:07:13.573Z,8.70
2017-05-23T12:09:40.665Z,9.40
2017-05-23T12:12:07.977Z,8.34
2017-05-23T12:14:35.271Z,7.44
2017-05-23T12:17:02.334Z,7.14
2017-05-23T12:19:28.656Z,6.34
2017-05-23T12:21:55.829Z,6.00
2017-05-23T12:24:23.133Z,6.26
2017-05-23T12:26:50.374Z,7.18
2017-05-23T12:29:16.926Z,7.06
2017-05-23T12:31:45.496Z,6.42
2017-05-23T12:34:13.676Z,6.24
2017-05-23T12:36:40.299Z,5.30
2017-05-23T12:39:07.636Z,4.34
2017-05-23T12:41:36.845Z,5.20
2017-05-23T12:44:04.908Z,5.72
2017-05-23T12:46:31.977Z,5.00
2017-05-23T12:48:59.275Z,5.64
2017-05-23T12:51:26.584Z,4.60
2017-05-23T12:53:53.966Z,5.40
2017-05-23T12:56:21.099Z,4.58
2017-05-23T12:58:55.425Z,4.90
2017-05-23T13:01:22.549Z,5.10
2017-05-23T13:03:49.635Z,4.60
2017-05-23T13:06:16.717Z,3.40
2017-05-23T13:08:43.837Z,5.10
2017-05-23T13:11:10.919Z,4.34
2017-05-23T13:13:38.005Z,4.74
2017-05-23T13:16:05.149Z,3.82
2017-05-23T13:18:32.234Z,4.16
2017-05-23T13:20:59.300Z,4.10
2017-05-23T13:23:26.420Z,4.60
2017-05-23T13:25:53.501Z,4.88
2017-05-23T13:28:20.804Z,4.46
2017-05-23T13:30:48.100Z,4.56
2017-05-23T13:33:15.505Z,4.24
2017-05-23T13:35:42.836Z,3.98
2017-05-23T13:38:10.809Z,3.88
2017-05-23T13:40:44.704Z,3.40
2017-05-23T13:43:11.948Z,3.12
2017-05-23T13:45:39.060Z,3.02
2017-05-23T13:48:05.417Z,3.44
2017-05-23T13:50:32.534Z,3.68
2017-05-23T13:52:59.636Z,3.10
2017-05-23T13:55:26.753Z,3.50
2017-05-23T13:57:53.829Z,3.92
2017-05-23T14:00:20.957Z,5.34
2017-05-23T14:02:48.051Z,4.72
2017-05-23T14:05:15.344Z,4.90
2017-05-23T14:07:42.802Z,5.86
2017-05-23T14:10:12.753Z,5.86
2017-05-23T14:12:39.090Z,5.02
2017-05-23T14:15:06.382Z,5.02
2017-05-23T14:17:33.457Z,4.96
2017-05-23T14:20:00.580Z,4.54
2017-05-23T14:22:27.669Z,4.52
2017-05-23T14:25:02.006Z,5.08
2017-05-23T14:27:29.097Z,5.68
2017-05-23T14:29:56.267Z,5.58
2017-05-23T14:32:23.457Z,5.74
2017-05-23T14:34:50.660Z,5.82
2017-05-23T14:37:17.926Z,4.76
2017-05-23T14:39:45.047Z,5.28
2017-05-23T14:42:12.141Z,5.34
2017-05-23T14:44:39.237Z,4.70
2017-05-23T14:47:06.360Z,5.26
2017-05-23T14:49:32.737Z,4.78
2017-05-23T14:51:59.848Z,5.26
2017-05-23T14:54:26.998Z,4.34
2017-05-23T14:56:54.148Z,4.46
2017-05-23T14:59:21.242Z,4.60
2017-05-23T15:01:48.334Z,4.62
2017-05-23T15:04:15.537Z,4.34
2017-05-23T15:06:42.637Z,4.20
2017-05-23T15:09:09.771Z,3.80
2017-05-23T15:11:36.917Z,3.04
2017-05-23T15:14:04.249Z,3.16
2017-05-23T15:16:31.941Z,3.50
2017-05-23T15:18:59.170Z,3.30
2017-05-23T15:21:26.544Z,3.18
2017-05-23T15:23:54.009Z,3.40
2017-05-23T15:26:21.340Z,4.00
2017-05-23T15:28:48.664Z,3.84
2017-05-23T15:31:15.985Z,3.22
2017-05-23T15:33:43.322Z,3.90
2017-05-23T15:36:10.686Z,3.50
2017-05-23T15:38:38.032Z,4.04
2017-05-23T15:41:05.366Z,3.00
2017-05-23T15:43:32.833Z,3.24
2017-05-23T15:46:00.200Z,3.30
2017-05-23T15:48:26.816Z,2.70
2017-05-23T15:50:54.017Z,3.34
2017-05-23T15:53:21.363Z,3.32
2017-05-23T15:55:48.723Z,2.76
2017-05-23T15:58:16.086Z,2.60
2017-05-23T16:00:43.556Z,3.02
2017-05-23T16:03:10.910Z,3.04
2017-05-23T16:05:38.317Z,2.86
2017-05-23T16:08:05.704Z,2.92
2017-05-23T16:10:32.324Z,3.02
2017-05-23T16:12:59.877Z,3.02
2017-05-23T16:15:28.286Z,2.60
2017-05-23T16:17:55.630Z,2.00
2017-05-23T16:20:23.737Z,1.60
2017-05-23T16:22:51.186Z,1.78
2017-05-23T16:25:18.570Z,2.00
2017-05-23T16:27:45.887Z,1.98
2017-05-23T16:30:13.323Z,2.26
2017-05-23T16:32:40.673Z,2.18
2017-05-23T16:35:07.911Z,2.06
2017-05-23T16:37:37.970Z,2.32
2017-05-23T16:40:05.176Z,2.18
2017-05-23T16:42:32.278Z,2.12
2017-05-23T16:44:59.649Z,2.00
2017-05-23T16:47:27.013Z,2.20
2017-05-23T16:49:54.405Z,1.92
2017-05-23T16:52:21.610Z,2.12
2017-05-23T16:54:48.820Z,1.98
2017-05-23T16:57:16.133Z,1.98
2017-05-23T16:59:43.497Z,2.10
2017-05-23T17:02:10.824Z,1.76
2017-05-23T17:04:44.597Z,1.72
2017-05-23T17:07:11.669Z,1.92
2017-05-23T17:09:38.789Z,1.80
2017-05-23T17:12:05.163Z,1.68
2017-05-23T17:14:32.307Z,1.80
2017-05-23T17:16:59.424Z,2.20
2017-05-23T17:19:26.561Z,1.60
2017-05-23T17:21:53.745Z,1.76
2017-05-23T17:24:20.824Z,1.78
2017-05-23T17:26:47.906Z,2.10
2017-05-23T17:29:15.070Z,2.30
2017-05-23T17:31:42.148Z,2.10
2017-05-23T17:34:09.995Z,1.90
2017-05-23T17:36:37.096Z,1.66
2017-05-23T17:39:04.200Z,1.70
2017-05-23T17:41:31.293Z,1.84
2017-05-23T17:43:58.375Z,1.80
2017-05-23T17:46:25.492Z,2.40
2017-05-23T17:48:54.197Z,1.60
2017-05-23T17:51:21.319Z,1.58
2017-05-23T17:53:48.420Z,1.60
2017-05-23T17:56:15.526Z,1.22
2017-05-23T17:58:42.649Z,1.62
2017-05-23T18:01:09.765Z,1.66
2017-05-23T18:03:37.001Z,1.60
2017-05-23T18:06:04.201Z,1.06
2017-05-23T18:08:31.582Z,1.20
2017-05-23T18:10:58.956Z,1.20
2017-05-23T18:13:26.393Z,1.40
2017-05-23T18:15:53.864Z,1.10
2017-05-23T18:18:21.172Z,1.40
2017-05-23T18:20:47.791Z,1.40
2017-05-23T18:23:15.063Z,1.44
2017-05-23T18:25:42.383Z,1.60
2017-05-23T18:28:09.770Z,1.50
2017-05-23T18:30:37.193Z,1.50
2017-05-23T18:33:04.589Z,1.18
2017-05-23T18:35:32.371Z,1.74
2017-05-23T18:37:58.961Z,1.52
2017-05-23T18:40:26.258Z,1.50
2017-05-23T18:42:53.571Z,1.50
2017-05-23T18:45:20.916Z,1.10
2017-05-23T18:47:48.310Z,1.46
2017-05-23T18:50:14.876Z,1.46
2017-05-23T18:52:42.229Z,1.58
2017-05-23T18:55:09.481Z,1.70
2017-05-23T18:57:36.806Z,1.40
2017-05-23T19:00:04.317Z,1.82
2017-05-23T19:02:31.876Z,2.58
2017-05-23T19:04:59.312Z,1.62
2017-05-23T19:07:26.693Z,1.30
2017-05-23T19:09:54.887Z,1.54
2017-05-23T19:12:21.397Z,1.50
2017-05-23T19:14:48.811Z,1.60
2017-05-23T19:17:16.507Z,1.42
2017-05-23T19:19:43.899Z,1.32
2017-05-23T19:22:11.445Z,1.52
2017-05-23T19:24:39.761Z,1.54
2017-05-23T19:27:07.069Z,1.58
2017-05-23T19:29:34.395Z,1.30
2017-05-23T19:32:01.716Z,1.54
2017-05-23T19:34:29.069Z,1.18
2017-05-23T19:36:56.513Z,1.20
2017-05-23T19:39:23.997Z,1.48
2017-05-23T19:41:51.414Z,1.62
2017-05-23T19:44:19.051Z,1.74
2017-05-23T19:46:47.505Z,1.30
2017-05-23T19:49:14.999Z,1.30
2017-05-23T19:51:42.363Z,1.24
2017-05-23T19:54:09.565Z,1.20
2017-05-23T19:56:37.258Z,1.60
2017-05-23T19:59:04.527Z,1.20
2017-05-23T20:01:31.900Z,1.02
2017-05-23T20:03:59.160Z,1.36
2017-05-23T20:06:26.844Z,1.34
2017-05-23T20:08:54.298Z,1.44
2017-05-23T20:11:21.747Z,1.46
2017-05-23T20:13:49.233Z,1.38
2017-05-23T20:16:16.599Z,1.46
2017-05-23T20:18:44.149Z,1.06
2017-05-23T20:21:11.860Z,0.98
2017-05-23T20:23:39.323Z,1.06
2017-05-23T20:26:06.718Z,1.48
2017-05-23T20:28:33.993Z,1.36
2017-05-23T20:31:01.347Z,1.42
2017-05-23T20:33:27.945Z,1.34
2017-05-23T20:35:55.397Z,0.96
2017-05-23T20:38:23.784Z,0.96
2017-05-23T20:40:51.177Z,1.10
2017-05-23T20:43:18.395Z,0.82
2017-05-23T20:45:45.729Z,1.30
2017-05-23T20:48:33.351Z,1.28
2017-05-23T20:51:00.710Z,1.00
2017-05-23T20:53:28.093Z,1.16
2017-05-23T20:55:55.638Z,0.90
2017-05-23T20:58:22.945Z,1.34
2017-05-23T21:00:50.276Z,1.10
2017-05-23T21:03:17.614Z,1.14
2017-05-23T21:05:45.939Z,0.80
2017-05-23T21:08:13.572Z,1.10
2017-05-23T21:10:40.926Z,0.96
2017-05-23T21:13:08.294Z,1.00
2017-05-23T21:15:35.556Z,1.20
2017-05-23T21:18:02.978Z,1.32
2017-05-23T21:20:29.684Z,1.30
2017-05-23T21:22:57.045Z,1.20
2017-05-23T21:25:24.289Z,1.02
2017-05-23T21:27:51.545Z,1.10
2017-05-23T21:30:18.877Z,1.40
2017-05-23T21:32:46.189Z,1.08
2017-05-23T21:35:13.538Z,0.84
2017-05-23T21:37:40.990Z,1.22
2017-05-23T21:40:08.245Z,1.20
2017-05-23T21:42:35.557Z,1.30
2017-05-23T21:45:02.826Z,1.22
2017-05-23T21:47:30.137Z,1.18
2017-05-23T21:49:57.488Z,1.08
2017-05-23T21:52:24.841Z,1.40
2017-05-23T21:54:52.237Z,0.94
2017-05-23T21:57:19.438Z,1.06
2017-05-23T21:59:47.073Z,0.78
2017-05-23T22:02:14.421Z,1.62
2017-05-23T22:04:41.729Z,1.30
2017-05-23T22:07:09.081Z,1.52
2017-05-23T22:09:36.421Z,1.08
2017-05-23T22:12:04.089Z,1.00
2017-05-23T22:14:31.396Z,1.40
2017-05-23T22:16:58.770Z,1.26
2017-05-23T22:19:26.152Z,1.32
2017-05-23T22:21:53.529Z,1.40
2017-05-23T22:24:20.837Z,1.40
2017-05-23T22:26:48.197Z,1.04
2017-05-23T22:29:15.529Z,1.54
2017-05-23T22:31:42.757Z,1.50
2017-05-23T22:34:10.241Z,1.46
2017-05-23T22:36:38.306Z,1.10
2017-05-23T22:39:05.740Z,1.40
2017-05-23T22:41:33.105Z,1.18
2017-05-23T22:44:00.480Z,1.40
2017-05-23T22:46:29.249Z,1.44
2017-05-23T22:48:56.845Z,1.60
2017-05-23T22:51:23.364Z,1.50
2017-05-23T22:53:50.599Z,1.34
2017-05-23T22:56:19.532Z,1.42
2017-05-23T22:58:46.932Z,1.46
2017-05-23T23:01:16.693Z,1.38
2017-05-23T23:03:44.948Z,1.18
2017-05-23T23:06:12.173Z,1.80
2017-05-23T23:08:39.509Z,1.36
2017-05-23T23:11:06.097Z,1.74
2017-05-23T23:13:33.432Z,1.46
2017-05-23T23:16:00.776Z,1.44
2017-05-23T23:18:28.147Z,1.40
2017-05-23T23:20:55.871Z,1.30
2017-05-23T23:23:23.291Z,1.54
2017-05-23T23:25:50.605Z,1.14
2017-05-23T23:28:17.936Z,1.20
2017-05-23T23:30:45.271Z,1.82
2017-05-23T23:33:12.597Z,1.42
2017-05-23T23:35:39.925Z,1.30
2017-05-23T23:38:07.231Z,1.86
2017-05-23T23:40:34.586Z,1.20
2017-05-23T23:43:01.936Z,1.40
2017-05-23T23:45:29.272Z,1.64
2017-05-23T23:47:56.604Z,1.36
2017-05-23T23:50:23.945Z,1.66
2017-05-23T23:52:50.532Z,2.02
2017-05-23T23:55:17.745Z,1.40
2017-05-23T23:57:44.462Z,1.66
